sensor_id;sensor_type;location;lat;lon;timestamp;temperature;humidity
28767;DHT22;15921;52.034;20.650;2023-04-24T00:00:09;11.30;92.30
28767;DHT22;15921;52.034;20.650;2023-04-24T00:02:35;11.20;93.50
28767;DHT22;15921;52.034;20.650;2023-04-24T00:05:04;11.20;93.80
28767;DHT22;15921;52.034;20.650;2023-04-24T00:07:31;11.20;94.20
28767;DHT22;15921;52.034;20.650;2023-04-24T00:09:56;11.20;95.00
28767;DHT22;15921;52.034;20.650;2023-04-24T00:12:22;11.20;95.80
28767;DHT22;15921;52.034;20.650;2023-04-24T00:14:48;11.10;96.60
28767;DHT22;15921;52.034;20.650;2023-04-24T00:17:13;11.10;97.40
28767;DHT22;15921;52.034;20.650;2023-04-24T00:19:39;11.10;98.30
28767;DHT22;15921;52.034;20.650;2023-04-24T00:22:05;11.00;99.40
28767;DHT22;15921;52.034;20.650;2023-04-24T00:24:31;11.00;99.90
28767;DHT22;15921;52.034;20.650;2023-04-24T00:26:57;10.90;99.90
28767;DHT22;15921;52.034;20.650;2023-04-24T00:29:23;10.90;99.90
28767;DHT22;15921;52.034;20.650;2023-04-24T00:31:48;10.90;99.90
28767;DHT22;15921;52.034;20.650;2023-04-24T00:34:14;10.90;99.90
28767;DHT22;15921;52.034;20.650;2023-04-24T00:36:40;10.80;99.90
28767;DHT22;15921;52.034;20.650;2023-04-24T00:39:06;10.80;99.90
28767;DHT22;15921;52.034;20.650;2023-04-24T00:41:34;10.80;99.90
28767;DHT22;15921;52.034;20.650;2023-04-24T00:44:00;10.70;99.90
28767;DHT22;15921;52.034;20.650;2023-04-24T00:46:25;10.70;99.90
28767;DHT22;15921;52.034;20.650;2023-04-24T00:48:51;10.70;99.90
28767;DHT22;15921;52.034;20.650;2023-04-24T00:51:17;10.60;99.90
28767;DHT22;15921;52.034;20.650;2023-04-24T00:53:43;10.60;99.90
28767;DHT22;15921;52.034;20.650;2023-04-24T00:56:09;10.50;99.90
28767;DHT22;15921;52.034;20.650;2023-04-24T00:58:35;10.50;99.90
28767;DHT22;15921;52.034;20.650;2023-04-24T01:01:02;10.40;99.90
28767;DHT22;15921;52.034;20.650;2023-04-24T01:03:30;10.40;99.90
28767;DHT22;15921;52.034;20.650;2023-04-24T01:05:57;10.30;99.90
28767;DHT22;15921;52.034;20.650;2023-04-24T01:08:24;10.30;99.90
28767;DHT22;15921;52.034;20.650;2023-04-24T01:10:51;10.20;99.90
28767;DHT22;15921;52.034;20.650;2023-04-24T01:13:21;10.20;99.90
28767;DHT22;15921;52.034;20.650;2023-04-24T01:15:47;10.20;99.90
28767;DHT22;15921;52.034;20.650;2023-04-24T01:18:13;10.20;99.90
28767;DHT22;15921;52.034;20.650;2023-04-24T01:20:40;10.10;99.90
28767;DHT22;15921;52.034;20.650;2023-04-24T01:23:08;10.10;99.90
28767;DHT22;15921;52.034;20.650;2023-04-24T01:25:34;10.10;99.90
28767;DHT22;15921;52.034;20.650;2023-04-24T01:28:00;10.10;99.90
28767;DHT22;15921;52.034;20.650;2023-04-24T01:30:27;10.10;99.90
28767;DHT22;15921;52.034;20.650;2023-04-24T01:32:53;10.10;99.90
28767;DHT22;15921;52.034;20.650;2023-04-24T01:35:19;10.10;99.90
28767;DHT22;15921;52.034;20.650;2023-04-24T01:37:46;10.10;99.90
28767;DHT22;15921;52.034;20.650;2023-04-24T01:40:11;10.00;99.90
28767;DHT22;15921;52.034;20.650;2023-04-24T01:42:37;10.00;99.90
28767;DHT22;15921;52.034;20.650;2023-04-24T01:45:05;10.00;99.90
28767;DHT22;15921;52.034;20.650;2023-04-24T01:47:31;9.90;99.90
28767;DHT22;15921;52.034;20.650;2023-04-24T01:49:57;9.90;99.90
28767;DHT22;15921;52.034;20.650;2023-04-24T01:52:23;9.90;99.90
28767;DHT22;15921;52.034;20.650;2023-04-24T01:54:49;9.80;99.90
28767;DHT22;15921;52.034;20.650;2023-04-24T01:57:16;9.80;99.90
28767;DHT22;15921;52.034;20.650;2023-04-24T01:59:42;9.80;99.90
28767;DHT22;15921;52.034;20.650;2023-04-24T02:02:08;9.80;99.90
28767;DHT22;15921;52.034;20.650;2023-04-24T02:04:34;9.70;99.90
28767;DHT22;15921;52.034;20.650;2023-04-24T02:06:59;9.70;99.90
28767;DHT22;15921;52.034;20.650;2023-04-24T02:09:25;9.70;99.90
28767;DHT22;15921;52.034;20.650;2023-04-24T02:11:51;9.70;99.90
28767;DHT22;15921;52.034;20.650;2023-04-24T02:14:16;9.60;99.90
28767;DHT22;15921;52.034;20.650;2023-04-24T02:16:42;9.60;99.90
28767;DHT22;15921;52.034;20.650;2023-04-24T02:19:09;9.60;99.90
28767;DHT22;15921;52.034;20.650;2023-04-24T02:21:35;9.50;99.90
28767;DHT22;15921;52.034;20.650;2023-04-24T02:24:01;9.60;99.90
28767;DHT22;15921;52.034;20.650;2023-04-24T02:26:26;9.50;99.90
28767;DHT22;15921;52.034;20.650;2023-04-24T02:28:52;9.40;99.90
28767;DHT22;15921;52.034;20.650;2023-04-24T02:31:18;9.40;99.90
28767;DHT22;15921;52.034;20.650;2023-04-24T02:33:44;9.40;99.90
28767;DHT22;15921;52.034;20.650;2023-04-24T02:36:09;9.40;99.90
28767;DHT22;15921;52.034;20.650;2023-04-24T02:38:35;9.40;99.90
28767;DHT22;15921;52.034;20.650;2023-04-24T02:41:01;9.30;99.90
28767;DHT22;15921;52.034;20.650;2023-04-24T02:43:27;9.30;99.90
28767;DHT22;15921;52.034;20.650;2023-04-24T02:45:53;9.40;99.90
28767;DHT22;15921;52.034;20.650;2023-04-24T02:48:19;9.30;99.90
28767;DHT22;15921;52.034;20.650;2023-04-24T02:50:46;9.30;99.90
28767;DHT22;15921;52.034;20.650;2023-04-24T02:53:12;9.30;99.90
28767;DHT22;15921;52.034;20.650;2023-04-24T02:55:38;9.30;99.90
28767;DHT22;15921;52.034;20.650;2023-04-24T02:58:03;9.30;99.90
28767;DHT22;15921;52.034;20.650;2023-04-24T03:00:29;9.30;99.90
28767;DHT22;15921;52.034;20.650;2023-04-24T03:02:55;9.20;99.90
28767;DHT22;15921;52.034;20.650;2023-04-24T03:05:21;9.20;99.90
28767;DHT22;15921;52.034;20.650;2023-04-24T03:07:47;9.30;99.90
28767;DHT22;15921;52.034;20.650;2023-04-24T03:10:12;9.30;99.90
28767;DHT22;15921;52.034;20.650;2023-04-24T03:12:38;9.30;99.90
28767;DHT22;15921;52.034;20.650;2023-04-24T03:15:04;9.30;99.90
28767;DHT22;15921;52.034;20.650;2023-04-24T03:17:30;9.30;99.90
28767;DHT22;15921;52.034;20.650;2023-04-24T03:19:56;9.30;99.90
28767;DHT22;15921;52.034;20.650;2023-04-24T03:22:21;9.40;99.90
28767;DHT22;15921;52.034;20.650;2023-04-24T03:24:47;9.40;99.90
28767;DHT22;15921;52.034;20.650;2023-04-24T03:27:12;9.40;99.90
28767;DHT22;15921;52.034;20.650;2023-04-24T03:29:38;9.50;99.90
28767;DHT22;15921;52.034;20.650;2023-04-24T03:32:04;9.50;99.90
28767;DHT22;15921;52.034;20.650;2023-04-24T03:34:29;9.50;99.90
28767;DHT22;15921;52.034;20.650;2023-04-24T03:36:55;9.60;99.90
28767;DHT22;15921;52.034;20.650;2023-04-24T03:39:21;9.60;99.90
28767;DHT22;15921;52.034;20.650;2023-04-24T03:41:46;9.60;99.90
28767;DHT22;15921;52.034;20.650;2023-04-24T03:44:12;9.70;99.90
28767;DHT22;15921;52.034;20.650;2023-04-24T03:46:38;9.70;99.90
28767;DHT22;15921;52.034;20.650;2023-04-24T03:49:03;9.80;99.90
28767;DHT22;15921;52.034;20.650;2023-04-24T03:51:29;9.90;99.90
28767;DHT22;15921;52.034;20.650;2023-04-24T03:53:56;9.90;99.90
28767;DHT22;15921;52.034;20.650;2023-04-24T03:56:22;10.00;99.90
28767;DHT22;15921;52.034;20.650;2023-04-24T03:58:48;10.10;99.90
28767;DHT22;15921;52.034;20.650;2023-04-24T04:01:13;10.20;99.90
28767;DHT22;15921;52.034;20.650;2023-04-24T04:03:41;10.30;99.90
28767;DHT22;15921;52.034;20.650;2023-04-24T04:06:07;10.40;99.90
28767;DHT22;15921;52.034;20.650;2023-04-24T04:08:33;10.50;99.90
28767;DHT22;15921;52.034;20.650;2023-04-24T04:10:58;10.60;99.90
28767;DHT22;15921;52.034;20.650;2023-04-24T04:13:24;10.80;99.90
28767;DHT22;15921;52.034;20.650;2023-04-24T04:15:50;10.90;99.90
28767;DHT22;15921;52.034;20.650;2023-04-24T04:18:16;11.10;99.90
28767;DHT22;15921;52.034;20.650;2023-04-24T04:20:41;11.20;99.90
28767;DHT22;15921;52.034;20.650;2023-04-24T04:23:07;11.30;99.90
28767;DHT22;15921;52.034;20.650;2023-04-24T04:25:33;11.50;99.90
28767;DHT22;15921;52.034;20.650;2023-04-24T04:27:59;11.60;99.90
28767;DHT22;15921;52.034;20.650;2023-04-24T04:30:25;11.80;99.90
28767;DHT22;15921;52.034;20.650;2023-04-24T04:32:51;11.90;99.90
28767;DHT22;15921;52.034;20.650;2023-04-24T04:35:17;12.10;99.90
28767;DHT22;15921;52.034;20.650;2023-04-24T04:37:42;12.20;99.90
28767;DHT22;15921;52.034;20.650;2023-04-24T04:40:08;12.20;99.90
28767;DHT22;15921;52.034;20.650;2023-04-24T04:42:37;12.30;99.90
28767;DHT22;15921;52.034;20.650;2023-04-24T04:45:09;12.40;99.90
28767;DHT22;15921;52.034;20.650;2023-04-24T04:47:36;12.60;99.90
28767;DHT22;15921;52.034;20.650;2023-04-24T04:50:02;12.70;99.90
28767;DHT22;15921;52.034;20.650;2023-04-24T04:52:29;12.90;99.90
28767;DHT22;15921;52.034;20.650;2023-04-24T04:54:55;13.10;99.90
28767;DHT22;15921;52.034;20.650;2023-04-24T04:57:21;13.30;99.90
28767;DHT22;15921;52.034;20.650;2023-04-24T04:59:46;13.50;99.90
28767;DHT22;15921;52.034;20.650;2023-04-24T05:02:12;13.80;99.90
28767;DHT22;15921;52.034;20.650;2023-04-24T05:04:38;14.00;99.90
28767;DHT22;15921;52.034;20.650;2023-04-24T05:07:04;14.30;99.90
28767;DHT22;15921;52.034;20.650;2023-04-24T05:09:29;14.60;98.90
28767;DHT22;15921;52.034;20.650;2023-04-24T05:11:55;14.80;97.70
28767;DHT22;15921;52.034;20.650;2023-04-24T05:14:21;15.00;96.80
28767;DHT22;15921;52.034;20.650;2023-04-24T05:16:47;15.20;95.70
28767;DHT22;15921;52.034;20.650;2023-04-24T05:19:13;15.40;94.90
28767;DHT22;15921;52.034;20.650;2023-04-24T05:21:42;15.70;94.40
28767;DHT22;15921;52.034;20.650;2023-04-24T05:24:08;15.80;93.80
28767;DHT22;15921;52.034;20.650;2023-04-24T05:26:33;16.00;93.00
28767;DHT22;15921;52.034;20.650;2023-04-24T05:28:59;16.30;92.30
28767;DHT22;15921;52.034;20.650;2023-04-24T05:31:25;16.50;91.90
28767;DHT22;15921;52.034;20.650;2023-04-24T05:33:51;16.70;91.40
28767;DHT22;15921;52.034;20.650;2023-04-24T05:36:17;16.90;90.80
28767;DHT22;15921;52.034;20.650;2023-04-24T05:38:42;17.10;90.10
28767;DHT22;15921;52.034;20.650;2023-04-24T05:41:08;17.40;89.40
28767;DHT22;15921;52.034;20.650;2023-04-24T05:43:34;17.70;88.10
28767;DHT22;15921;52.034;20.650;2023-04-24T05:45:59;17.90;86.30
28767;DHT22;15921;52.034;20.650;2023-04-24T05:48:25;18.20;84.70
28767;DHT22;15921;52.034;20.650;2023-04-24T05:50:51;18.30;83.00
28767;DHT22;15921;52.034;20.650;2023-04-24T05:53:18;18.50;81.30
28767;DHT22;15921;52.034;20.650;2023-04-24T05:55:44;18.60;80.00
28767;DHT22;15921;52.034;20.650;2023-04-24T05:58:10;18.60;78.70
28767;DHT22;15921;52.034;20.650;2023-04-24T06:00:35;18.80;78.40
28767;DHT22;15921;52.034;20.650;2023-04-24T06:03:01;19.10;77.50
28767;DHT22;15921;52.034;20.650;2023-04-24T06:05:29;19.20;76.30
28767;DHT22;15921;52.034;20.650;2023-04-24T06:07:56;19.50;75.50
28767;DHT22;15921;52.034;20.650;2023-04-24T06:10:21;19.60;74.40
28767;DHT22;15921;52.034;20.650;2023-04-24T06:12:47;19.80;73.70
28767;DHT22;15921;52.034;20.650;2023-04-24T06:15:13;19.90;72.70
28767;DHT22;15921;52.034;20.650;2023-04-24T06:17:38;19.90;72.10
28767;DHT22;15921;52.034;20.650;2023-04-24T06:20:05;20.10;71.40
28767;DHT22;15921;52.034;20.650;2023-04-24T06:22:32;20.10;70.10
28767;DHT22;15921;52.034;20.650;2023-04-24T06:24:59;20.20;69.60
28767;DHT22;15921;52.034;20.650;2023-04-24T06:27:25;20.30;69.60
28767;DHT22;15921;52.034;20.650;2023-04-24T06:29:51;20.50;69.60
28767;DHT22;15921;52.034;20.650;2023-04-24T06:32:22;20.60;69.10
28767;DHT22;15921;52.034;20.650;2023-04-24T06:34:48;20.80;68.10
28767;DHT22;15921;52.034;20.650;2023-04-24T06:37:14;21.00;66.30
28767;DHT22;15921;52.034;20.650;2023-04-24T06:39:40;21.10;65.20
28767;DHT22;15921;52.034;20.650;2023-04-24T06:42:06;21.20;64.90
28767;DHT22;15921;52.034;20.650;2023-04-24T06:44:33;21.40;64.80
28767;DHT22;15921;52.034;20.650;2023-04-24T06:47:03;21.60;64.80
28767;DHT22;15921;52.034;20.650;2023-04-24T06:49:28;21.70;63.20
28767;DHT22;15921;52.034;20.650;2023-04-24T06:51:54;22.00;63.10
28767;DHT22;15921;52.034;20.650;2023-04-24T06:54:20;22.10;62.60
28767;DHT22;15921;52.034;20.650;2023-04-24T06:56:46;22.40;60.60
28767;DHT22;15921;52.034;20.650;2023-04-24T06:59:13;22.50;60.10
28767;DHT22;15921;52.034;20.650;2023-04-24T07:01:38;22.60;60.10
28767;DHT22;15921;52.034;20.650;2023-04-24T07:04:04;22.80;60.20
28767;DHT22;15921;52.034;20.650;2023-04-24T07:06:30;22.90;61.10
28767;DHT22;15921;52.034;20.650;2023-04-24T07:08:55;23.00;61.40
28767;DHT22;15921;52.034;20.650;2023-04-24T07:11:21;23.00;60.60
28767;DHT22;15921;52.034;20.650;2023-04-24T07:13:47;22.80;60.00
28767;DHT22;15921;52.034;20.650;2023-04-24T07:16:13;22.80;59.20
28767;DHT22;15921;52.034;20.650;2023-04-24T07:18:39;22.70;59.30
28767;DHT22;15921;52.034;20.650;2023-04-24T07:21:05;22.50;59.40
28767;DHT22;15921;52.034;20.650;2023-04-24T07:23:31;22.30;59.40
28767;DHT22;15921;52.034;20.650;2023-04-24T07:25:57;22.20;60.30
28767;DHT22;15921;52.034;20.650;2023-04-24T07:28:23;22.00;60.70
28767;DHT22;15921;52.034;20.650;2023-04-24T07:30:48;22.00;60.60
28767;DHT22;15921;52.034;20.650;2023-04-24T07:33:14;21.90;60.60
28767;DHT22;15921;52.034;20.650;2023-04-24T07:35:40;21.70;58.80
28767;DHT22;15921;52.034;20.650;2023-04-24T07:38:05;21.50;58.70
28767;DHT22;15921;52.034;20.650;2023-04-24T07:40:31;21.50;58.80
28767;DHT22;15921;52.034;20.650;2023-04-24T07:42:57;21.40;59.00
28767;DHT22;15921;52.034;20.650;2023-04-24T07:45:22;21.40;59.30
28767;DHT22;15921;52.034;20.650;2023-04-24T07:47:50;21.40;59.30
28767;DHT22;15921;52.034;20.650;2023-04-24T07:50:16;21.40;59.10
28767;DHT22;15921;52.034;20.650;2023-04-24T07:52:41;21.40;59.40
28767;DHT22;15921;52.034;20.650;2023-04-24T07:55:07;21.40;59.10
28767;DHT22;15921;52.034;20.650;2023-04-24T07:57:33;21.50;59.10
28767;DHT22;15921;52.034;20.650;2023-04-24T07:59:59;21.50;59.40
28767;DHT22;15921;52.034;20.650;2023-04-24T08:02:25;21.50;58.80
28767;DHT22;15921;52.034;20.650;2023-04-24T08:04:52;21.50;58.10
28767;DHT22;15921;52.034;20.650;2023-04-24T08:07:21;21.60;58.30
28767;DHT22;15921;52.034;20.650;2023-04-24T08:09:47;21.60;57.90
28767;DHT22;15921;52.034;20.650;2023-04-24T08:12:12;21.60;57.80
28767;DHT22;15921;52.034;20.650;2023-04-24T08:14:38;21.50;56.20
28767;DHT22;15921;52.034;20.650;2023-04-24T08:17:04;21.60;56.20
28767;DHT22;15921;52.034;20.650;2023-04-24T08:19:30;21.60;55.70
28767;DHT22;15921;52.034;20.650;2023-04-24T08:21:55;21.70;55.50
28767;DHT22;15921;52.034;20.650;2023-04-24T08:24:22;21.80;55.00
28767;DHT22;15921;52.034;20.650;2023-04-24T08:26:48;21.80;55.40
28767;DHT22;15921;52.034;20.650;2023-04-24T08:29:19;21.90;55.00
28767;DHT22;15921;52.034;20.650;2023-04-24T08:31:45;22.00;54.40
28767;DHT22;15921;52.034;20.650;2023-04-24T08:34:10;22.00;54.40
28767;DHT22;15921;52.034;20.650;2023-04-24T08:36:37;21.90;54.00
28767;DHT22;15921;52.034;20.650;2023-04-24T08:39:02;21.90;54.80
28767;DHT22;15921;52.034;20.650;2023-04-24T08:41:28;22.00;55.40
28767;DHT22;15921;52.034;20.650;2023-04-24T08:43:55;22.10;55.10
28767;DHT22;15921;52.034;20.650;2023-04-24T08:46:24;22.30;54.60
28767;DHT22;15921;52.034;20.650;2023-04-24T08:48:51;22.40;53.80
28767;DHT22;15921;52.034;20.650;2023-04-24T08:51:17;22.50;53.50
28767;DHT22;15921;52.034;20.650;2023-04-24T08:53:45;22.40;53.50
28767;DHT22;15921;52.034;20.650;2023-04-24T08:56:11;22.50;54.10
28767;DHT22;15921;52.034;20.650;2023-04-24T08:58:38;22.50;53.70
28767;DHT22;15921;52.034;20.650;2023-04-24T09:01:04;22.50;53.60
28767;DHT22;15921;52.034;20.650;2023-04-24T09:03:31;22.40;53.80
28767;DHT22;15921;52.034;20.650;2023-04-24T09:05:58;22.50;54.40
28767;DHT22;15921;52.034;20.650;2023-04-24T09:08:26;22.60;54.10
28767;DHT22;15921;52.034;20.650;2023-04-24T09:10:53;22.70;54.10
28767;DHT22;15921;52.034;20.650;2023-04-24T09:13:20;22.80;53.40
28767;DHT22;15921;52.034;20.650;2023-04-24T09:15:46;23.00;53.20
28767;DHT22;15921;52.034;20.650;2023-04-24T09:18:11;23.30;54.30
28767;DHT22;15921;52.034;20.650;2023-04-24T09:21:03;23.40;55.70
28767;DHT22;15921;52.034;20.650;2023-04-24T09:23:30;23.80;55.00
28767;DHT22;15921;52.034;20.650;2023-04-24T09:25:57;24.10;54.10
28767;DHT22;15921;52.034;20.650;2023-04-24T09:28:31;24.30;53.90
28767;DHT22;15921;52.034;20.650;2023-04-24T09:31:11;24.80;54.40
28767;DHT22;15921;52.034;20.650;2023-04-24T09:33:38;25.10;52.00
28767;DHT22;15921;52.034;20.650;2023-04-24T09:36:04;25.20;51.80
28767;DHT22;15921;52.034;20.650;2023-04-24T09:38:38;25.40;51.70
28767;DHT22;15921;52.034;20.650;2023-04-24T09:41:08;25.50;50.20
28767;DHT22;15921;52.034;20.650;2023-04-24T09:43:35;25.60;50.20
28767;DHT22;15921;52.034;20.650;2023-04-24T09:46:06;25.60;49.90
28767;DHT22;15921;52.034;20.650;2023-04-24T09:48:36;25.70;49.80
28767;DHT22;15921;52.034;20.650;2023-04-24T09:51:04;25.80;49.40
28767;DHT22;15921;52.034;20.650;2023-04-24T09:53:30;25.80;49.40
28767;DHT22;15921;52.034;20.650;2023-04-24T09:56:02;25.80;49.30
28767;DHT22;15921;52.034;20.650;2023-04-24T09:58:29;25.90;49.30
28767;DHT22;15921;52.034;20.650;2023-04-24T10:00:56;25.80;49.30
28767;DHT22;15921;52.034;20.650;2023-04-24T10:03:25;25.70;49.80
28767;DHT22;15921;52.034;20.650;2023-04-24T10:05:53;25.70;50.00
28767;DHT22;15921;52.034;20.650;2023-04-24T10:08:19;25.90;49.80
28767;DHT22;15921;52.034;20.650;2023-04-24T10:10:46;26.00;49.40
28767;DHT22;15921;52.034;20.650;2023-04-24T10:13:13;26.10;49.50
28767;DHT22;15921;52.034;20.650;2023-04-24T10:15:41;26.20;49.10
28767;DHT22;15921;52.034;20.650;2023-04-24T10:18:08;26.10;49.00
28767;DHT22;15921;52.034;20.650;2023-04-24T10:20:37;26.10;49.50
28767;DHT22;15921;52.034;20.650;2023-04-24T10:23:03;26.30;49.50
28767;DHT22;15921;52.034;20.650;2023-04-24T10:25:31;26.50;49.50
28767;DHT22;15921;52.034;20.650;2023-04-24T10:27:58;26.60;49.20
28767;DHT22;15921;52.034;20.650;2023-04-24T10:30:29;26.70;50.00
28767;DHT22;15921;52.034;20.650;2023-04-24T10:32:55;26.90;49.90
28767;DHT22;15921;52.034;20.650;2023-04-24T10:35:22;26.80;49.10
28767;DHT22;15921;52.034;20.650;2023-04-24T10:37:54;26.90;49.30
28767;DHT22;15921;52.034;20.650;2023-04-24T10:40:31;26.90;48.80
28767;DHT22;15921;52.034;20.650;2023-04-24T10:42:57;26.70;48.90
28767;DHT22;15921;52.034;20.650;2023-04-24T10:45:24;26.50;49.20
28767;DHT22;15921;52.034;20.650;2023-04-24T10:47:59;26.40;49.90
28767;DHT22;15921;52.034;20.650;2023-04-24T10:50:43;26.40;49.80
28767;DHT22;15921;52.034;20.650;2023-04-24T10:53:15;26.40;49.10
28767;DHT22;15921;52.034;20.650;2023-04-24T10:55:45;26.30;49.00
28767;DHT22;15921;52.034;20.650;2023-04-24T10:58:11;26.50;49.20
28767;DHT22;15921;52.034;20.650;2023-04-24T11:00:39;26.90;48.80
28767;DHT22;15921;52.034;20.650;2023-04-24T11:10:56;27.30;47.50
28767;DHT22;15921;52.034;20.650;2023-04-24T11:13:31;27.50;47.10
28767;DHT22;15921;52.034;20.650;2023-04-24T11:16:15;27.50;46.60
28767;DHT22;15921;52.034;20.650;2023-04-24T11:18:44;27.50;46.20
28767;DHT22;15921;52.034;20.650;2023-04-24T11:21:18;27.50;46.20
28767;DHT22;15921;52.034;20.650;2023-04-24T11:23:47;27.40;45.80
28767;DHT22;15921;52.034;20.650;2023-04-24T11:26:18;27.20;45.50
28767;DHT22;15921;52.034;20.650;2023-04-24T11:28:46;26.90;45.40
28767;DHT22;15921;52.034;20.650;2023-04-24T11:31:45;26.70;45.80
28767;DHT22;15921;52.034;20.650;2023-04-24T11:34:17;26.70;45.00
28767;DHT22;15921;52.034;20.650;2023-04-24T11:36:44;26.90;45.90
28767;DHT22;15921;52.034;20.650;2023-04-24T11:39:09;27.30;45.40
28767;DHT22;15921;52.034;20.650;2023-04-24T11:41:37;27.50;45.00
28767;DHT22;15921;52.034;20.650;2023-04-24T11:44:04;27.80;44.30
28767;DHT22;15921;52.034;20.650;2023-04-24T11:46:31;28.20;44.40
28767;DHT22;15921;52.034;20.650;2023-04-24T11:48:58;28.20;43.60
28767;DHT22;15921;52.034;20.650;2023-04-24T11:51:25;27.90;43.50
28767;DHT22;15921;52.034;20.650;2023-04-24T11:53:51;27.70;43.40
28767;DHT22;15921;52.034;20.650;2023-04-24T11:56:21;27.40;43.10
28767;DHT22;15921;52.034;20.650;2023-04-24T11:58:47;27.10;43.20
28767;DHT22;15921;52.034;20.650;2023-04-24T12:01:14;26.90;43.70
28767;DHT22;15921;52.034;20.650;2023-04-24T12:03:40;26.70;44.50
28767;DHT22;15921;52.034;20.650;2023-04-24T12:06:11;26.40;45.40
28767;DHT22;15921;52.034;20.650;2023-04-24T12:08:37;25.90;46.40
28767;DHT22;15921;52.034;20.650;2023-04-24T12:11:05;25.50;46.80
28767;DHT22;15921;52.034;20.650;2023-04-24T12:13:33;25.30;47.60
28767;DHT22;15921;52.034;20.650;2023-04-24T12:15:59;25.40;46.90
28767;DHT22;15921;52.034;20.650;2023-04-24T12:18:25;26.40;46.30
28767;DHT22;15921;52.034;20.650;2023-04-24T12:20:51;29.10;43.40
28767;DHT22;15921;52.034;20.650;2023-04-24T12:23:37;31.70;41.00
28767;DHT22;15921;52.034;20.650;2023-04-24T12:26:06;33.20;38.20
28767;DHT22;15921;52.034;20.650;2023-04-24T12:28:36;33.80;36.90
28767;DHT22;15921;52.034;20.650;2023-04-24T12:31:02;33.40;37.10
28767;DHT22;15921;52.034;20.650;2023-04-24T12:33:33;33.80;36.50
28767;DHT22;15921;52.034;20.650;2023-04-24T12:35:59;33.40;36.40
28767;DHT22;15921;52.034;20.650;2023-04-24T12:38:26;33.50;36.60
28767;DHT22;15921;52.034;20.650;2023-04-24T12:43:29;32.40;38.30
28767;DHT22;15921;52.034;20.650;2023-04-24T12:45:55;31.50;39.30
28767;DHT22;15921;52.034;20.650;2023-04-24T12:48:21;29.10;41.10
28767;DHT22;15921;52.034;20.650;2023-04-24T12:50:47;26.80;44.30
28767;DHT22;15921;52.034;20.650;2023-04-24T12:53:13;26.40;45.60
28767;DHT22;15921;52.034;20.650;2023-04-24T12:55:39;26.80;45.70
28767;DHT22;15921;52.034;20.650;2023-04-24T12:58:05;26.20;45.80
28767;DHT22;15921;52.034;20.650;2023-04-24T13:00:31;25.00;47.60
28767;DHT22;15921;52.034;20.650;2023-04-24T13:02:57;24.00;49.10
28767;DHT22;15921;52.034;20.650;2023-04-24T13:05:23;23.00;51.00
28767;DHT22;15921;52.034;20.650;2023-04-24T13:07:49;22.10;53.10
28767;DHT22;15921;52.034;20.650;2023-04-24T13:10:14;21.70;54.70
28767;DHT22;15921;52.034;20.650;2023-04-24T13:12:40;21.40;55.90
28767;DHT22;15921;52.034;20.650;2023-04-24T13:15:07;21.30;56.00
28767;DHT22;15921;52.034;20.650;2023-04-24T13:17:32;21.10;56.10
28767;DHT22;15921;52.034;20.650;2023-04-24T13:19:58;20.80;56.30
28767;DHT22;15921;52.034;20.650;2023-04-24T13:22:24;20.60;57.30
28767;DHT22;15921;52.034;20.650;2023-04-24T13:24:50;20.40;58.90
28767;DHT22;15921;52.034;20.650;2023-04-24T13:27:17;20.00;58.10
28767;DHT22;15921;52.034;20.650;2023-04-24T13:29:43;19.80;59.10
28767;DHT22;15921;52.034;20.650;2023-04-24T13:32:09;19.70;58.60
28767;DHT22;15921;52.034;20.650;2023-04-24T13:34:35;19.70;56.80
28767;DHT22;15921;52.034;20.650;2023-04-24T13:37:01;19.90;55.80
28767;DHT22;15921;52.034;20.650;2023-04-24T13:39:29;20.00;54.80
28767;DHT22;15921;52.034;20.650;2023-04-24T13:41:55;20.30;54.80
28767;DHT22;15921;52.034;20.650;2023-04-24T13:44:22;20.50;56.80
28767;DHT22;15921;52.034;20.650;2023-04-24T13:46:51;20.80;58.20
28767;DHT22;15921;52.034;20.650;2023-04-24T13:49:17;21.00;59.50
28767;DHT22;15921;52.034;20.650;2023-04-24T13:51:43;21.20;59.60
28767;DHT22;15921;52.034;20.650;2023-04-24T13:54:09;21.30;59.90
28767;DHT22;15921;52.034;20.650;2023-04-24T13:56:34;21.50;59.80
28767;DHT22;15921;52.034;20.650;2023-04-24T13:59:00;21.50;60.00
28767;DHT22;15921;52.034;20.650;2023-04-24T14:01:26;21.60;57.20
28767;DHT22;15921;52.034;20.650;2023-04-24T14:03:53;21.60;55.40
28767;DHT22;15921;52.034;20.650;2023-04-24T14:06:19;21.70;55.80
28767;DHT22;15921;52.034;20.650;2023-04-24T14:08:45;21.70;55.90
28767;DHT22;15921;52.034;20.650;2023-04-24T14:11:11;21.80;57.40
28767;DHT22;15921;52.034;20.650;2023-04-24T14:13:37;22.00;58.90
28767;DHT22;15921;52.034;20.650;2023-04-24T14:16:04;22.20;59.60
28767;DHT22;15921;52.034;20.650;2023-04-24T14:18:30;22.50;58.80
28767;DHT22;15921;52.034;20.650;2023-04-24T14:20:55;22.80;57.70
28767;DHT22;15921;52.034;20.650;2023-04-24T14:23:21;23.20;55.50
28767;DHT22;15921;52.034;20.650;2023-04-24T14:25:47;23.90;54.10
28767;DHT22;15921;52.034;20.650;2023-04-24T14:28:17;25.20;51.50
28767;DHT22;15921;52.034;20.650;2023-04-24T14:30:43;26.80;48.70
28767;DHT22;15921;52.034;20.650;2023-04-24T14:33:09;28.40;46.30
28767;DHT22;15921;52.034;20.650;2023-04-24T14:35:35;29.40;43.00
28767;DHT22;15921;52.034;20.650;2023-04-24T14:38:01;28.90;41.80
28767;DHT22;15921;52.034;20.650;2023-04-24T14:40:27;28.40;41.50
28767;DHT22;15921;52.034;20.650;2023-04-24T14:42:53;28.90;41.00
28767;DHT22;15921;52.034;20.650;2023-04-24T14:45:19;30.00;40.00
28767;DHT22;15921;52.034;20.650;2023-04-24T14:47:45;30.90;39.30
28767;DHT22;15921;52.034;20.650;2023-04-24T14:50:10;31.10;38.60
28767;DHT22;15921;52.034;20.650;2023-04-24T14:52:38;30.80;38.70
28767;DHT22;15921;52.034;20.650;2023-04-24T14:55:04;30.50;39.00
28767;DHT22;15921;52.034;20.650;2023-04-24T14:57:30;30.80;38.90
28767;DHT22;15921;52.034;20.650;2023-04-24T14:59:55;30.90;38.90
28767;DHT22;15921;52.034;20.650;2023-04-24T15:02:21;31.30;38.50
28767;DHT22;15921;52.034;20.650;2023-04-24T15:04:47;31.60;38.30
28767;DHT22;15921;52.034;20.650;2023-04-24T15:07:12;31.90;38.10
28767;DHT22;15921;52.034;20.650;2023-04-24T15:09:38;32.10;36.80
28767;DHT22;15921;52.034;20.650;2023-04-24T15:12:04;32.40;36.50
28767;DHT22;15921;52.034;20.650;2023-04-24T15:14:30;32.80;36.50
28767;DHT22;15921;52.034;20.650;2023-04-24T15:16:55;32.90;36.40
28767;DHT22;15921;52.034;20.650;2023-04-24T15:19:21;33.00;36.10
28767;DHT22;15921;52.034;20.650;2023-04-24T15:21:47;33.20;35.60
28767;DHT22;15921;52.034;20.650;2023-04-24T15:24:12;33.90;35.10